KFNT

Bishop International Airport

Flint, Michigan, USA
KFNT 171720Z 1718/1818 29007KT 6SM -SN OVC025 FM172000 29007KT P6SM OVC028 FM172200 31006KT P6SM OVC035 FM180000 35003KT P6SM BKN035 OVC045
Issued Valid From Valid To
Nov-17 @ 17:20 UTC
(4 hours ago)
Nov-17 @ 18:00 UTC
(4 hours ago)
Nov-18 @ 18:00 UTC
(in 20 hours)
Expired Click to View Nov-17 @ 18:00 to Nov-17 @ 20:00
KFNT 171720Z 1718/1818 29007KT 6SM -SN OVC025
Wind Visibility Clouds Conditions
290° at 7 knots 6 miles
  • Overcast at 2,500' AGL
  • Light Snow
From Nov-17 @ 20:00 to Nov-17 @ 22:00
FM172000 29007KT P6SM OVC028
Wind Visibility Clouds
290° at 7 knots Greater than 6 miles
  • Overcast at 2,800' AGL
From Nov-17 @ 22:00 to Nov-18 @ 00:00
FM172200 31006KT P6SM OVC035
Wind Visibility Clouds
310° at 6 knots Greater than 6 miles
  • Overcast at 3,500' AGL
From Nov-18 @ 00:00 to Nov-18 @ 18:00
FM180000 35003KT P6SM BKN035 OVC045
Wind Visibility Clouds
350° at 3 knots Greater than 6 miles
  • Broken at 3,500' AGL
  • Overcast at 4,500' AGL
KFNT 171720Z 1718/1818 29007KT 6SM -SN OVC025 FM172000 29007KT P6SM OVC028 FM172200 31006KT P6SM OVC035 FM180000 35003KT P6SM BKN035 OVC045
Issued Nov-17 @ 17:20 UTC
(4 hours ago)
Valid From Nov-17 @ 18:00 UTC
(4 hours ago)
Valid To Nov-18 @ 18:00 UTC
(in 20 hours)
Nov-17 @ 18:00 - Nov-17 @ 20:00
Wind Visibility
290° at 7 knots 6 miles
Clouds
  • Overcast at 2,500' AGL
Conditions
  • Light Snow
From Nov-17 @ 20:00 - Nov-17 @ 22:00
Wind Visibility
290° at 7 knots Greater than 6 miles
Clouds
  • Overcast at 2,800' AGL
From Nov-17 @ 22:00 - Nov-18 @ 00:00
Wind Visibility
310° at 6 knots Greater than 6 miles
Clouds
  • Overcast at 3,500' AGL
From Nov-18 @ 00:00 - Nov-18 @ 18:00
Wind Visibility
350° at 3 knots Greater than 6 miles
Clouds
  • Broken at 3,500' AGL
  • Overcast at 4,500' AGL